Central, Connecticut
Current Conditions -  °F | °C
As of 5:53 AM on Monday 20 Oct 2014 (Local Time) from KHFD Reporting Station
Clear Clear  
Wind Chill: 32°   Ceiling: Unl
Heat Index: 36°   Visibility: 10mi
Dew Point: 29°   Wind: 5mph
Humidity: 76%   Direction: 200°SSW
Pressure: 30.07"   Gusts: NA
Location:  41.7665°N, 72.6731°W
Report Text: KHFD 200953Z 20004KT 10SM CLR 02/M02 A3007 RMK AO2 SNB0859E08 SLP181 P0000 T00221017 $
Loading
Personal Weather Stations






























Interactive Weather Map New forecast layout! Learn more

10-Day Weather Forecast

Advertisements
Track Severe Weather on mobile